Terminal Aerodrome Forecast
Issued by NWS

Home | Current Version | Previous Version | Text Only | Print | Product List | Glossary On
Versions: 1 2 3 4 5 6 7 8 9 10 11 12 13 14 15 16 17
000
FTUS46 KSEW 051921 AAA
TAFPAE
TAF AMD
KPAE 051921Z 0519/0618 36007KT P6SM SCT015 BKN120 BKN200
      TEMPO 0519/0522 BKN015 OVC120
     FM052200 36007KT P6SM SCT025 BKN100 BKN200
     FM060400 04006KT P6SM SCT120 SCT200=

USA.gov is the U.S. government's official web portal to all federal, state and local government web resources and services.